Time;durP1;ratioP1;P1;durP2;ratioP2;P2;SDS_P1;SDS_P2;PMS_P1;PMS_P2;Temp;Humidity;BMP_temperature;BMP_pressure;BME280_temperature;BME280_humidity;BME280_pressure;Samples;Min_cycle;Max_cycle;Signal;HPM_P1;HPM_P2
2022/11/17 00:01:57;;;;;;;9.45;3.03;;;;;;;9.69;100.00;98696.72;5042609;28;20500;-72
2022/11/17 00:04:29;;;;;;;8.43;2.30;;;;;;;9.67;100.00;98654.31;5022264;28;20032;-72
2022/11/17 00:06:57;;;;;;;9.15;2.10;;;;;;;9.63;100.00;98631.25;5047175;28;20037;-72
2022/11/17 00:09:23;;;;;;;3.50;1.95;;;;;;;9.69;100.00;98642.06;5027656;28;20025;-74
2022/11/17 00:14:39;;;;;;;8.00;2.80;;;;;;;9.65;100.00;98640.88;5047709;28;20171;-72
2022/11/17 00:17:10;;;;;;;4.10;1.80;;;;;;;9.69;100.00;98643.94;5040790;28;20037;-72
2022/11/17 00:22:21;;;;;;;12.40;2.92;;;;;;;9.73;100.00;98650.59;5038692;28;20475;-72
2022/11/17 00:24:47;;;;;;;8.52;2.05;;;;;;;9.73;100.00;98637.75;5043679;28;20112;-72
2022/11/17 00:27:13;;;;;;;6.15;1.80;;;;;;;9.75;100.00;98616.47;5038614;28;20382;-73
2022/11/17 00:29:38;;;;;;;2.92;1.70;;;;;;;9.75;100.00;98621.94;5026653;28;20103;-73
2022/11/17 00:34:48;;;;;;;7.82;2.40;;;;;;;9.82;100.00;98633.53;5044252;28;20052;-73
2022/11/17 00:37:14;;;;;;;3.25;2.00;;;;;;;9.80;100.00;98619.28;5043730;28;20191;-73
2022/11/17 00:39:39;;;;;;;7.05;2.22;;;;;;;9.88;100.00;98623.53;5027796;28;20503;-73
2022/11/17 00:42:05;;;;;;;6.27;1.80;;;;;;;9.87;100.00;98621.88;5041941;28;20112;-73
2022/11/17 00:44:30;;;;;;;3.30;1.77;;;;;;;9.96;100.00;98629.41;5027656;28;20029;-73
2022/11/17 00:46:56;;;;;;;7.22;2.08;;;;;;;9.99;100.00;98639.03;5042615;28;20047;-73
2022/11/17 00:49:24;;;;;;;3.23;1.70;;;;;;;10.02;100.00;98616.63;5045889;28;20032;-73
2022/11/17 00:51:54;;;;;;;2.15;1.77;;;;;;;9.90;100.00;98605.78;5040731;28;20028;-73
2022/11/17 00:54:20;;;;;;;2.78;1.80;;;;;;;10.00;100.00;98602.38;5042950;28;20029;-73
2022/11/17 00:56:46;;;;;;;4.45;2.13;;;;;;;10.02;100.00;98595.59;5039705;28;20563;-74
2022/11/17 00:59:11;;;;;;;9.80;2.63;;;;;;;10.03;100.00;98610.94;5041705;28;20036;-73
2022/11/17 01:01:38;;;;;;;4.00;1.80;;;;;;;10.07;100.00;98608.53;5021283;28;20047;-73
2022/11/17 01:04:04;;;;;;;4.45;2.10;;;;;;;10.13;100.00;98604.81;5041224;28;20029;-73
2022/11/17 01:06:34;;;;;;;7.50;2.45;;;;;;;10.10;100.00;98597.13;5037670;28;20117;-73
2022/11/17 01:09:03;;;;;;;2.03;1.63;;;;;;;10.10;100.00;98588.91;5036423;28;20051;-73
2022/11/17 01:11:28;;;;;;;3.17;1.50;;;;;;;10.11;100.00;98582.38;5029829;28;20029;-74
2022/11/17 01:13:56;;;;;;;3.60;1.95;;;;;;;10.12;100.00;98592.22;5037751;28;20048;-73
2022/11/17 01:16:22;;;;;;;5.75;2.13;;;;;;;10.12;100.00;98594.97;5042580;28;20040;-73
2022/11/17 01:18:49;;;;;;;4.63;2.08;;;;;;;10.12;100.00;98600.44;5046205;28;20025;-74
2022/11/17 01:21:20;;;;;;;7.45;2.25;;;;;;;10.16;100.00;98601.59;5043638;28;20021;-73
2022/11/17 01:23:46;;;;;;;6.22;2.53;;;;;;;10.23;100.00;98615.91;5043902;28;20408;-73
2022/11/17 01:26:15;;;;;;;7.05;2.22;;;;;;;10.21;100.00;98597.03;5040986;28;20029;-73
2022/11/17 01:28:41;;;;;;;3.58;1.73;;;;;;;10.20;100.00;98580.88;5041803;28;20067;-73
2022/11/17 01:31:14;;;;;;;3.05;2.17;;;;;;;10.17;100.00;98587.69;5028073;28;20033;-73
2022/11/17 01:33:40;;;;;;;7.68;2.22;;;;;;;10.21;100.00;98588.84;5043680;28;20116;-73
2022/11/17 01:36:09;;;;;;;3.40;2.10;;;;;;;10.19;100.00;98584.69;5030654;28;20120;-73
2022/11/17 01:38:35;;;;;;;6.13;2.17;;;;;;;10.16;100.00;98569.59;5036471;28;20041;-73
2022/11/17 01:41:02;;;;;;;2.37;1.33;;;;;;;10.23;100.00;98561.19;5045932;28;20104;-73
2022/11/17 01:43:41;;;;;;;3.85;2.13;;;;;;;10.22;100.00;98562.28;5040313;28;20026;-73
2022/11/17 01:46:14;;;;;;;4.25;2.05;;;;;;;10.26;100.00;98572.47;5038698;28;20033;-73
2022/11/17 01:48:42;;;;;;;10.68;1.90;;;;;;;10.26;100.00;98566.19;5040732;28;20120;-73
2022/11/17 01:51:10;;;;;;;3.17;1.60;;;;;;;10.23;100.00;98563.94;5043783;28;20548;-73
2022/11/17 01:53:35;;;;;;;4.07;1.55;;;;;;;10.28;100.00;98564.00;5039433;28;20103;-73
2022/11/17 01:56:09;;;;;;;6.15;2.20;;;;;;;10.28;100.00;98556.66;5040239;28;20034;-72
2022/11/17 01:58:42;;;;;;;9.82;2.97;;;;;;;10.28;100.00;98539.38;5038876;28;20056;-73
2022/11/17 02:01:08;;;;;;;5.95;1.70;;;;;;;10.33;100.00;98550.41;5043603;28;20037;-70
2022/11/17 02:03:35;;;;;;;7.00;1.90;;;;;;;10.35;100.00;98538.13;5036924;28;20435;-70
2022/11/17 02:06:07;;;;;;;3.05;1.70;;;;;;;10.41;100.00;98530.84;5039403;28;20031;-71
2022/11/17 02:08:36;;;;;;;7.47;1.60;;;;;;;10.47;100.00;98527.09;5042975;28;20103;-70
2022/11/17 02:11:03;;;;;;;6.35;2.03;;;;;;;10.45;100.00;98526.50;5040139;28;20088;-70
2022/11/17 02:13:28;;;;;;;;;;;;;;;10.40;100.00;98520.97;5020412;28;20441;-70
2022/11/17 02:15:54;;;;;;;3.60;1.75;;;;;;;10.37;100.00;98532.41;5041784;28;19920;-70
2022/11/17 02:18:19;;;;;;;9.13;1.67;;;;;;;10.41;100.00;98526.19;5042740;28;20094;-70
2022/11/17 02:20:50;;;;;;;7.30;2.10;;;;;;;10.43;100.00;98523.19;5021992;28;20032;-70
2022/11/17 02:23:28;;;;;;;6.28;2.13;;;;;;;10.34;100.00;98517.34;5040397;28;20028;-69
2022/11/17 02:26:05;;;;;;;7.60;1.40;;;;;;;10.42;100.00;98521.53;5045987;28;20108;-71
2022/11/17 02:28:49;;;;;;;9.68;1.83;;;;;;;10.35;100.00;98504.50;5043296;28;20087;-70
2022/11/17 02:31:26;;;;;;;4.65;1.42;;;;;;;10.37;100.00;98503.16;5040408;28;20025;-70
2022/11/17 02:34:23;;;;;;;8.50;1.48;;;;;;;10.35;100.00;98493.53;5043831;28;20029;-71
2022/11/17 02:36:55;;;;;;;6.57;1.38;;;;;;;10.41;100.00;98489.78;5044774;28;20095;-69
2022/11/17 02:39:34;;;;;;;8.57;1.60;;;;;;;10.42;100.00;98489.50;5028576;28;20029;-69
2022/11/17 02:42:08;;;;;;;8.68;1.70;;;;;;;10.45;100.00;98485.44;5038490;28;20428;-71
2022/11/17 02:44:49;;;;;;;9.48;1.58;;;;;;;10.45;100.00;98466.28;5043245;28;20091;-70
2022/11/17 02:47:20;;;;;;;3.58;1.25;;;;;;;10.55;100.00;98482.84;5043316;28;20073;-70
2022/11/17 02:49:53;;;;;;;6.05;1.50;;;;;;;10.46;100.00;98473.44;5044681;28;20096;-69
2022/11/17 02:52:19;;;;;;;4.65;1.48;;;;;;;10.44;100.00;98475.59;5046454;28;20032;-70
2022/11/17 02:54:44;;;;;;;3.70;1.13;;;;;;;10.41;100.00;98473.38;5040317;28;20056;-71
2022/11/17 02:57:45;;;;;;;5.43;1.40;;;;;;;10.29;100.00;98475.38;5037472;28;20071;-71
2022/11/17 03:00:18;;;;;;;3.53;1.13;;;;;;;10.20;100.00;98468.72;4960408;28;20045;-70
2022/11/17 03:03:07;;;;;;;3.40;1.38;;;;;;;10.20;100.00;98461.31;5032013;28;20128;-70
2022/11/17 03:05:46;;;;;;;4.97;2.03;;;;;;;10.23;100.00;98474.50;5044994;28;20383;-70
2022/11/17 03:08:30;;;;;;;2.70;1.10;;;;;;;10.18;100.00;98465.38;5022576;28;20107;-70
2022/11/17 03:11:06;;;;;;;5.15;1.45;;;;;;;10.33;100.00;98455.47;5042308;28;20060;-69
2022/11/17 03:14:07;;;;;;;3.63;1.35;;;;;;;10.26;100.00;98451.28;5041352;28;20035;-70
2022/11/17 03:16:55;;;;;;;3.15;1.10;;;;;;;10.20;100.00;98441.34;5044727;28;20569;-70
2022/11/17 03:19:30;;;;;;;5.88;1.77;;;;;;;10.27;100.00;98439.25;5039306;28;20080;-70
2022/11/17 03:22:10;;;;;;;1.45;1.00;;;;;;;10.18;100.00;98425.19;5040502;28;20032;-69
2022/11/17 03:24:41;;;;;;;6.68;1.33;;;;;;;10.22;100.00;98420.88;5038707;28;20072;-69
2022/11/17 03:27:36;;;;;;;3.50;1.30;;;;;;;10.27;100.00;98418.19;5040899;28;20032;-70
2022/11/17 03:30:06;;;;;;;5.05;1.27;;;;;;;10.31;100.00;98410.31;5022707;28;20053;-72
2022/11/17 03:32:37;;;;;;;10.90;1.65;;;;;;;10.30;100.00;98414.13;5042908;28;20029;-70
2022/11/17 03:35:08;;;;;;;5.10;1.38;;;;;;;10.33;100.00;98406.22;5040276;28;20405;-70
2022/11/17 03:37:36;;;;;;;7.65;1.38;;;;;;;10.41;100.00;98400.28;5040447;28;20458;-70
2022/11/17 03:40:09;;;;;;;3.05;1.60;;;;;;;10.36;100.00;98392.03;5038370;28;20025;-71
2022/11/17 03:42:39;;;;;;;6.05;1.23;;;;;;;10.40;100.00;98406.84;5023366;28;20033;-70
2022/11/17 03:45:18;;;;;;;8.32;2.17;;;;;;;10.47;100.00;98382.03;5042206;28;20104;-71
2022/11/17 03:47:45;;;;;;;10.52;1.92;;;;;;;10.53;100.00;98384.59;5041800;28;20136;-71
2022/11/17 03:50:16;;;;;;;;;;;;;;;10.44;100.00;98386.09;5042296;28;20025;-71
2022/11/17 03:52:43;;;;;;;4.55;1.10;;;;;;;10.44;100.00;98374.31;5033768;28;20015;-72
2022/11/17 03:55:09;;;;;;;3.45;1.23;;;;;;;10.44;100.00;98371.59;5041470;28;20051;-71
2022/11/17 03:57:50;;;;;;;4.20;1.10;;;;;;;10.45;100.00;98370.50;5034250;28;20040;-71
2022/11/17 04:00:18;;;;;;;6.82;1.23;;;;;;;10.38;100.00;98373.47;5029117;28;20025;-72
2022/11/17 04:02:46;;;;;;;3.67;1.10;;;;;;;10.44;100.00;98379.78;5040171;28;20416;-71
2022/11/17 04:05:13;;;;;;;8.73;1.48;;;;;;;10.46;100.00;98372.19;5035516;28;20037;-71
2022/11/17 04:07:44;;;;;;;3.92;1.30;;;;;;;10.46;100.00;98369.44;5045314;28;20041;-70
2022/11/17 04:10:14;;;;;;;3.42;1.02;;;;;;;10.47;100.00;98360.13;5037719;28;20052;-70
2022/11/17 04:16:00;;;;;;;4.03;1.40;;;;;;;10.46;100.00;98367.50;5043157;28;20112;-70
2022/11/17 04:18:18;;;;;;;4.45;1.10;;;;;;;10.46;100.00;98367.50;5033179;28;20041;-72
2022/11/17 04:20:43;;;;;;;3.20;1.13;;;;;;;10.41;100.00;98361.97;5039572;28;20029;-71
2022/11/17 04:23:12;;;;;;;3.63;1.23;;;;;;;10.34;100.00;98352.31;5023757;28;20512;-72
2022/11/17 04:28:35;;;;;;;4.55;1.00;;;;;;;10.37;100.00;98360.88;5041897;28;20056;-71
2022/11/17 04:31:02;;;;;;;2.53;0.90;;;;;;;10.38;100.00;98339.78;5026486;28;20124;-70
2022/11/17 04:33:27;;;;;;;6.07;1.20;;;;;;;10.33;100.00;98345.19;5043253;28;20025;-70
2022/11/17 04:35:52;;;;;;;5.73;1.30;;;;;;;10.35;100.00;98345.78;5041981;28;20090;-71
2022/11/17 04:38:18;;;;;;;4.28;1.10;;;;;;;10.42;100.00;98335.44;5034689;28;20029;-71
2022/11/17 04:41:52;;;;;;;4.03;1.35;;;;;;;10.45;100.00;98341.22;5047822;28;20029;-71
2022/11/17 04:43:28;;;;;;;3.88;1.23;;;;;;;10.45;100.00;98340.41;5037904;28;20037;-70
2022/11/17 04:45:58;;;;;;;3.37;1.30;;;;;;;10.47;100.00;98346.47;5041649;28;20114;-70
2022/11/17 04:48:24;;;;;;;7.95;2.13;;;;;;;10.44;100.00;98345.06;5038580;28;20125;-70
2022/11/17 04:50:55;;;;;;;1.57;0.90;;;;;;;10.42;100.00;98330.78;5040556;28;20108;-70
2022/11/17 04:53:21;;;;;;;4.57;1.27;;;;;;;10.42;100.00;98325.31;5022691;28;20034;-70
2022/11/17 04:55:46;;;;;;;1.27;0.93;;;;;;;10.40;100.00;98340.38;5044768;28;20032;-70
2022/11/17 04:58:11;;;;;;;20.48;1.85;;;;;;;10.40;100.00;98332.16;5046681;28;20037;-72
2022/11/17 05:00:37;;;;;;;7.35;1.30;;;;;;;10.42;100.00;98346.41;5050622;28;20031;-71
2022/11/17 05:03:02;;;;;;;3.17;1.20;;;;;;;10.46;100.00;98336.59;5023991;28;20116;-70
2022/11/17 05:05:27;;;;;;;5.57;1.20;;;;;;;10.46;100.00;98334.66;5040673;28;20072;-70
2022/11/17 05:07:52;;;;;;;4.10;1.02;;;;;;;10.45;100.00;98351.34;5048043;28;20465;-70
2022/11/17 05:13:20;;;;;;;3.90;1.27;;;;;;;10.53;100.00;98346.25;5042787;28;20027;-69
2022/11/17 05:13:23;;;;;;;2.55;0.85;;;;;;;10.50;100.00;98351.41;5041384;28;20127;-72
2022/11/17 05:18:42;;;;;;;5.50;1.00;;;;;;;10.56;100.00;98348.47;5044035;28;20059;-71
2022/11/17 05:21:10;;;;;;;3.33;1.40;;;;;;;10.55;100.00;98343.25;5046325;28;20025;-70
2022/11/17 05:23:54;;;;;;;1.85;1.10;;;;;;;10.50;100.00;98346.75;5041347;28;20044;-70
2022/11/17 05:26:31;;;;;;;2.15;1.05;;;;;;;10.52;100.00;98349.25;5043230;28;20485;-70
2022/11/17 05:28:59;;;;;;;5.03;1.23;;;;;;;10.52;100.00;98360.19;5023673;28;20465;-70
2022/11/17 05:31:25;;;;;;;2.55;1.17;;;;;;;10.49;100.00;98347.00;5049644;28;20029;-70
2022/11/17 05:33:52;;;;;;;4.57;1.63;;;;;;;10.57;100.00;98352.03;5042883;28;20025;-71
2022/11/17 05:36:18;;;;;;;5.22;1.45;;;;;;;10.53;100.00;98350.91;5041549;28;20416;-71
2022/11/17 05:38:46;;;;;;;4.73;1.37;;;;;;;10.51;100.00;98345.66;5042977;28;20075;-70
2022/11/17 05:41:11;;;;;;;4.00;1.35;;;;;;;10.48;100.00;98350.84;5043171;28;20282;-73
2022/11/17 05:43:37;;;;;;;8.07;1.87;;;;;;;10.54;100.00;98350.66;5043489;28;20035;-70
2022/11/17 05:46:03;;;;;;;6.00;1.27;;;;;;;10.51;100.00;98347.59;5043156;28;20117;-71
2022/11/17 05:48:28;;;;;;;5.95;1.70;;;;;;;10.55;100.00;98345.97;5043391;28;20095;-69
2022/11/17 05:50:54;;;;;;;6.30;1.40;;;;;;;10.56;100.00;98345.72;5029448;28;20025;-71
2022/11/17 05:53:21;;;;;;;8.57;1.42;;;;;;;10.59;100.00;98349.84;5041798;28;20041;-70
2022/11/17 05:55:47;;;;;;;9.57;1.63;;;;;;;10.60;100.00;98359.72;5029292;28;20037;-69
2022/11/17 05:58:26;;;;;;;10.83;2.13;;;;;;;10.66;100.00;98348.56;5040225;28;20033;-70
2022/11/17 06:00:53;;;;;;;4.95;1.50;;;;;;;10.64;100.00;98358.13;5046812;28;20111;-70
2022/11/17 06:03:28;;;;;;;6.65;1.70;;;;;;;10.60;100.00;98359.72;5041377;28;20026;-70
2022/11/17 06:05:53;;;;;;;8.60;1.83;;;;;;;10.62;100.00;98365.78;5043951;28;20025;-69
2022/11/17 06:08:19;;;;;;;11.13;1.90;;;;;;;10.53;100.00;98357.22;5039219;28;20041;-70
2022/11/17 06:10:44;;;;;;;9.65;2.72;;;;;;;10.52;100.00;98341.03;5033124;28;20468;-69
2022/11/17 06:13:10;;;;;;;7.70;1.53;;;;;;;10.48;100.00;98359.06;5044330;28;20025;-71
2022/11/17 06:15:36;;;;;;;8.50;1.67;;;;;;;10.52;100.00;98369.22;5042758;28;20029;-70
2022/11/17 06:18:06;;;;;;;9.65;1.45;;;;;;;10.50;100.00;98367.81;5038888;28;20036;-70
2022/11/17 06:20:37;;;;;;;12.38;1.60;;;;;;;10.46;100.00;98358.50;5048042;28;20033;-70
2022/11/17 06:23:05;;;;;;;10.35;1.50;;;;;;;10.38;100.00;98380.81;5043533;28;20030;-70
2022/11/17 06:25:33;;;;;;;4.63;1.45;;;;;;;10.37;100.00;98381.91;5025028;28;20370;-69
2022/11/17 06:28:02;;;;;;;6.13;1.45;;;;;;;10.39;100.00;98371.53;5040860;28;20432;-70
2022/11/17 06:30:28;;;;;;;9.27;2.10;;;;;;;10.32;100.00;98374.50;5042936;28;20121;-69
2022/11/17 06:32:55;;;;;;;7.32;1.50;;;;;;;10.25;100.00;98368.38;5036516;28;20031;-69
2022/11/17 06:35:21;;;;;;;8.98;1.25;;;;;;;10.27;100.00;98370.84;5044946;28;20037;-69
2022/11/17 06:37:46;;;;;;;2.60;1.10;;;;;;;10.21;100.00;98371.88;5025306;28;20454;-70
2022/11/17 06:40:12;;;;;;;6.03;1.33;;;;;;;10.19;100.00;98379.53;5038185;28;20025;-70
2022/11/17 06:45:23;;;;;;;7.60;1.75;;;;;;;10.16;100.00;98385.50;5044448;28;20047;-70
2022/11/17 06:47:48;;;;;;;4.18;1.55;;;;;;;10.07;100.00;98390.59;5042590;28;20022;-71
2022/11/17 06:50:13;;;;;;;3.80;1.00;;;;;;;10.06;100.00;98388.09;5046374;28;20473;-69
2022/11/17 06:52:39;;;;;;;9.02;1.40;;;;;;;10.04;100.00;98384.78;5042903;28;20032;-70
2022/11/17 06:55:04;;;;;;;3.88;1.27;;;;;;;9.99;100.00;98401.91;5041168;28;20033;-71
2022/11/17 06:57:30;;;;;;;2.47;1.20;;;;;;;9.95;100.00;98410.88;5040000;28;20041;-69
2022/11/17 06:59:55;;;;;;;4.90;1.20;;;;;;;9.98;100.00;98404.94;5043046;28;20035;-70
2022/11/17 07:02:20;;;;;;;3.72;1.42;;;;;;;10.00;100.00;98402.75;5040470;28;20033;-70
2022/11/17 07:04:45;;;;;;;4.53;1.10;;;;;;;9.95;100.00;98414.47;5047285;28;20471;-70
2022/11/17 07:07:12;;;;;;;3.17;1.45;;;;;;;9.91;100.00;98405.09;5044725;28;20039;-70
2022/11/17 07:09:37;;;;;;;3.43;1.30;;;;;;;9.87;100.00;98414.06;5031731;28;20035;-70
2022/11/17 07:12:02;;;;;;;3.60;1.10;;;;;;;9.90;100.00;98416.28;5031133;28;20286;-71
2022/11/17 07:14:28;;;;;;;2.10;1.00;;;;;;;9.88;100.00;98421.19;5036400;28;20481;-70
2022/11/17 07:16:53;;;;;;;6.07;1.03;;;;;;;9.84;100.00;98420.03;5040677;28;20025;-70
2022/11/17 07:19:18;;;;;;;3.22;1.23;;;;;;;9.84;100.00;98425.50;5030889;28;20369;-70
2022/11/17 07:21:43;;;;;;;9.30;1.35;;;;;;;9.79;100.00;98434.47;5038674;28;20086;-70
2022/11/17 07:24:09;;;;;;;7.60;1.55;;;;;;;9.79;100.00;98434.47;5041079;28;20032;-69
2022/11/17 07:26:34;;;;;;;3.65;1.23;;;;;;;9.78;100.00;98432.78;5040081;28;20030;-70
2022/11/17 07:29:00;;;;;;;1.47;1.00;;;;;;;9.81;100.00;98426.81;5038925;28;20029;-70
2022/11/17 07:31:25;;;;;;;6.35;2.28;;;;;;;9.84;100.00;98431.81;5041892;28;20480;-70
2022/11/17 07:33:52;;;;;;;5.20;1.30;;;;;;;9.79;100.00;98439.09;5037054;28;20068;-69
2022/11/17 07:36:18;;;;;;;2.67;1.33;;;;;;;9.81;100.00;98436.91;5041933;28;20041;-69
2022/11/17 07:38:43;;;;;;;2.38;1.08;;;;;;;9.70;100.00;98441.41;5038673;28;20029;-70
2022/11/17 07:41:12;;;;;;;4.15;1.30;;;;;;;9.79;100.00;98439.94;5046259;28;20029;-71
2022/11/17 07:43:37;;;;;;;5.20;1.58;;;;;;;9.84;100.00;98452.84;5042136;28;20026;-69
2022/11/17 07:46:07;;;;;;;6.53;1.40;;;;;;;9.81;100.00;98445.13;5037559;28;20392;-70
2022/11/17 07:48:33;;;;;;;5.30;1.40;;;;;;;9.79;100.00;98458.22;5019281;28;20033;-69
2022/11/17 07:50:59;;;;;;;9.38;2.15;;;;;;;9.82;100.00;98461.28;5041040;28;20469;-69
2022/11/17 07:53:24;;;;;;;10.05;1.58;;;;;;;9.81;100.00;98458.78;5038768;28;20424;-69
2022/11/17 07:55:49;;;;;;;7.13;1.60;;;;;;;9.78;100.00;98462.84;5034760;28;20037;-71
2022/11/17 07:58:15;;;;;;;2.88;1.10;;;;;;;9.83;100.00;98475.78;5042564;28;20392;-69
2022/11/17 08:00:40;;;;;;;4.65;1.40;;;;;;;9.79;100.00;98463.69;5041854;28;20633;-70
2022/11/17 08:03:05;;;;;;;2.70;1.30;;;;;;;9.82;100.00;98461.28;5042048;28;20558;-70
2022/11/17 08:05:34;;;;;;;7.47;1.88;;;;;;;9.83;100.00;98467.59;5038061;28;20040;-70
2022/11/17 08:08:00;;;;;;;9.10;2.05;;;;;;;9.81;100.00;98467.84;5038437;28;20040;-70
2022/11/17 08:10:26;;;;;;;7.53;1.40;;;;;;;9.84;100.00;98469.25;5041582;28;20400;-70
2022/11/17 08:12:52;;;;;;;7.45;1.90;;;;;;;9.86;100.00;98472.53;5041454;28;20196;-70
2022/11/17 08:15:17;;;;;;;5.28;1.27;;;;;;;9.83;100.00;98473.06;5039518;28;20028;-70
2022/11/17 08:17:43;;;;;;;7.57;2.00;;;;;;;9.85;100.00;98499.06;5029650;28;20033;-71
2022/11/17 08:20:11;;;;;;;4.20;1.50;;;;;;;9.90;100.00;98495.56;5043972;28;20029;-70
2022/11/17 08:22:36;;;;;;;6.63;2.13;;;;;;;9.90;100.00;98490.09;5044472;28;20030;-70
2022/11/17 08:25:01;;;;;;;5.57;1.65;;;;;;;9.89;100.00;98491.19;5047183;28;20094;-71
2022/11/17 08:27:27;;;;;;;6.18;2.05;;;;;;;9.90;100.00;98503.78;5037389;28;21298;-70
2022/11/17 08:29:52;;;;;;;6.57;2.80;;;;;;;9.93;100.00;98500.56;5027124;28;20029;-69
2022/11/17 08:32:17;;;;;;;4.37;1.57;;;;;;;9.98;100.00;98497.91;5040019;28;20033;-70
2022/11/17 08:34:43;;;;;;;5.20;1.77;;;;;;;9.99;100.00;98514.03;5048686;28;20024;-70
2022/11/17 08:37:08;;;;;;;6.28;2.35;;;;;;;9.95;100.00;98498.38;5048344;28;20393;-71
2022/11/17 08:39:33;;;;;;;5.63;1.30;;;;;;;9.94;100.00;98510.41;5043274;28;20032;-70
2022/11/17 08:41:58;;;;;;;8.35;1.58;;;;;;;9.93;100.00;98517.78;5043316;28;20465;-70
2022/11/17 08:44:24;;;;;;;8.10;2.47;;;;;;;9.89;100.00;98504.88;5044244;28;20090;-70
2022/11/17 08:46:49;;;;;;;5.97;1.85;;;;;;;9.87;100.00;98516.03;5048817;28;20030;-70
2022/11/17 08:49:14;;;;;;;5.68;1.50;;;;;;;9.84;100.00;98526.66;5045038;28;20144;-70
2022/11/17 08:51:40;;;;;;;5.55;1.70;;;;;;;9.88;100.00;98512.22;5041909;28;20465;-70
2022/11/17 08:54:05;;;;;;;7.38;2.13;;;;;;;9.80;100.00;98514.56;5039121;28;20025;-71
2022/11/17 08:56:30;;;;;;;10.48;1.73;;;;;;;9.81;100.00;98518.94;5044620;28;20036;-71
2022/11/17 08:58:56;;;;;;;10.10;1.77;;;;;;;9.79;100.00;98518.38;5044773;28;20075;-71
2022/11/17 09:01:21;;;;;;;5.07;1.30;;;;;;;9.76;100.00;98516.97;5044063;28;20064;-71
2022/11/17 09:03:47;;;;;;;9.07;1.55;;;;;;;9.77;100.00;98540.47;5038973;28;20040;-70
2022/11/17 09:06:14;;;;;;;7.80;2.50;;;;;;;9.78;100.00;98547.59;5020887;28;20060;-71
2022/11/17 09:08:39;;;;;;;;;;;;;;;9.76;100.00;98544.31;5042045;28;20036;-70
2022/11/17 09:11:07;;;;;;;9.68;3.47;;;;;;;9.77;100.00;98565.09;5040110;28;19917;-70
2022/11/17 09:13:34;;;;;;;14.38;8.20;;;;;;;9.80;100.00;98555.56;5042561;28;20025;-69
2022/11/17 09:16:04;;;;;;;8.13;1.77;;;;;;;9.82;100.00;98567.91;5043697;28;20056;-69
2022/11/17 09:18:29;;;;;;;7.88;1.60;;;;;;;9.83;100.00;98557.81;5038683;28;20062;-70
2022/11/17 09:21:03;;;;;;;6.82;1.63;;;;;;;9.78;100.00;98564.00;5045198;28;20076;-68
2022/11/17 09:23:29;;;;;;;10.82;2.08;;;;;;;9.87;100.00;98567.19;5036222;28;20071;-70
2022/11/17 09:25:54;;;;;;;5.68;1.67;;;;;;;9.80;100.00;98566.50;5042039;28;20381;-72
2022/11/17 09:28:20;;;;;;;2.97;1.90;;;;;;;9.82;100.00;98569.84;5038131;28;20041;-69
2022/11/17 09:30:45;;;;;;;6.30;1.60;;;;;;;9.84;100.00;98570.41;5043119;28;20029;-69
2022/11/17 09:33:10;;;;;;;5.03;1.92;;;;;;;9.83;100.00;98571.47;5046516;28;20036;-70
2022/11/17 09:35:35;;;;;;;4.22;1.98;;;;;;;9.82;100.00;98575.31;5023506;28;20022;-71
2022/11/17 09:38:01;;;;;;;6.55;2.00;;;;;;;9.83;100.00;98575.03;5047154;28;20385;-69
2022/11/17 09:40:27;;;;;;;4.72;1.63;;;;;;;9.83;100.00;98576.94;5045379;28;20112;-70
2022/11/17 09:42:53;;;;;;;8.43;2.38;;;;;;;9.79;100.00;98576.63;5043421;28;20299;-70
2022/11/17 09:45:25;;;;;;;13.65;2.67;;;;;;;9.84;100.00;98584.06;5044304;28;20061;-69
2022/11/17 09:47:57;;;;;;;3.97;2.10;;;;;;;9.88;100.00;98585.25;5022826;28;20051;-69
2022/11/17 09:50:30;;;;;;;10.10;2.22;;;;;;;9.83;100.00;98602.38;5044487;28;20025;-70
2022/11/17 09:53:14;;;;;;;9.77;1.88;;;;;;;9.78;100.00;98594.06;5031383;28;20033;-69
2022/11/17 09:55:49;;;;;;;10.10;1.50;;;;;;;9.82;100.00;98600.72;5043280;28;20424;-70
2022/11/17 09:58:31;;;;;;;9.52;2.33;;;;;;;9.79;100.00;98605.84;5018317;28;20503;-69
2022/11/17 10:00:57;;;;;;;18.67;2.50;;;;;;;9.80;100.00;98602.03;5039513;28;20029;-69
2022/11/17 10:03:34;;;;;;;8.82;2.08;;;;;;;9.79;100.00;98598.50;5046150;28;20048;-69
2022/11/17 10:06:05;;;;;;;6.82;1.83;;;;;;;9.82;100.00;98605.38;5042437;28;20041;-69
2022/11/17 10:08:40;;;;;;;7.82;1.83;;;;;;;9.83;100.00;98602.38;5038736;28;20037;-69
2022/11/17 10:13:56;;;;;;;8.88;2.45;;;;;;;9.87;100.00;98611.75;5046776;28;20040;-68
2022/11/17 10:16:21;;;;;;;7.75;1.77;;;;;;;9.90;100.00;98615.88;5047613;28;21613;-70
2022/11/17 10:18:46;;;;;;;17.08;2.58;;;;;;;9.90;100.00;98616.72;5031369;28;20052;-69
2022/11/17 10:21:12;;;;;;;18.50;2.30;;;;;;;9.93;100.00;98615.41;5042824;28;20025;-69
2022/11/17 10:23:42;;;;;;;13.47;1.97;;;;;;;9.92;100.00;98622.78;5039250;28;20063;-68
2022/11/17 10:26:10;;;;;;;10.15;2.10;;;;;;;9.97;100.00;98632.97;5037308;28;20152;-70
2022/11/17 10:28:36;;;;;;;9.02;2.00;;;;;;;9.95;100.00;98629.66;5036521;28;20043;-69
2022/11/17 10:31:09;;;;;;;10.23;2.22;;;;;;;9.96;100.00;98628.56;5040426;28;20056;-70
2022/11/17 10:33:46;;;;;;;12.25;1.80;;;;;;;10.01;100.00;98640.44;5044937;28;20065;-70
2022/11/17 10:36:17;;;;;;;16.90;1.92;;;;;;;10.03;100.00;98627.34;5046154;28;20029;-71
2022/11/17 10:38:46;;;;;;;4.22;1.63;;;;;;;10.02;100.00;98655.78;5049073;28;20060;-70
2022/11/17 10:41:15;;;;;;;8.13;1.67;;;;;;;10.01;100.00;98634.13;5048475;28;20480;-69
2022/11/17 10:43:54;;;;;;;4.05;1.60;;;;;;;9.98;100.00;98665.53;5032468;28;20396;-69
2022/11/17 10:46:21;;;;;;;11.20;1.83;;;;;;;10.00;100.00;98659.81;5027575;28;20119;-70
2022/11/17 10:49:02;;;;;;;5.78;1.77;;;;;;;10.05;100.00;98643.53;5046270;28;20025;-69
2022/11/17 10:51:31;;;;;;;9.40;2.58;;;;;;;9.96;100.00;98647.72;5038397;28;20032;-69
2022/11/17 10:54:14;;;;;;;7.55;1.65;;;;;;;10.01;100.00;98651.38;5023367;28;20025;-69
2022/11/17 10:56:46;;;;;;;8.40;1.85;;;;;;;10.01;100.00;98650.53;5040270;28;20025;-69
2022/11/17 10:59:40;;;;;;;8.05;2.00;;;;;;;10.01;100.00;98661.47;5028238;28;20033;-70
2022/11/17 11:02:36;;;;;;;10.10;1.40;;;;;;;10.03;100.00;98657.41;5041009;28;20033;-69
2022/11/17 11:05:09;;;;;;;6.13;2.30;;;;;;;10.07;99.30;98652.31;5033765;28;20049;-70
2022/11/17 11:07:35;;;;;;;7.75;2.78;;;;;;;10.12;100.00;98657.88;5041196;28;20069;-69
2022/11/17 11:10:17;;;;;;;11.55;1.58;;;;;;;10.16;100.00;98659.88;5027651;28;20405;-69
2022/11/17 11:13:05;;;;;;;7.38;2.15;;;;;;;10.19;99.16;98653.09;5042617;28;20077;-69
2022/11/17 11:15:34;;;;;;;7.60;2.17;;;;;;;10.19;99.47;98675.78;5045173;28;20542;-70
2022/11/17 11:17:59;;;;;;;11.80;2.50;;;;;;;10.26;99.05;98656.47;5043169;28;20044;-70
2022/11/17 11:20:43;;;;;;;9.30;1.92;;;;;;;10.31;97.53;98662.03;5039949;28;20543;-69
2022/11/17 11:23:23;;;;;;;8.98;1.58;;;;;;;10.25;97.43;98663.03;5045139;28;20085;-70
2022/11/17 11:26:16;;;;;;;5.88;1.85;;;;;;;10.27;98.22;98674.53;5043473;28;20032;-70
2022/11/17 11:28:59;;;;;;;8.43;1.50;;;;;;;10.27;97.69;98671.81;5026652;28;20106;-70
2022/11/17 11:31:39;;;;;;;5.65;1.60;;;;;;;10.23;99.08;98670.63;5041043;28;20067;-69
2022/11/17 11:34:14;;;;;;;9.80;1.63;;;;;;;10.25;97.56;98679.44;5045108;28;20029;-69
2022/11/17 11:36:48;;;;;;;5.00;1.98;;;;;;;10.24;98.29;98683.25;5044072;28;20033;-69
2022/11/17 11:39:38;;;;;;;9.15;2.00;;;;;;;10.29;97.84;98688.78;5040703;28;20108;-69
2022/11/17 11:42:21;;;;;;;6.95;2.25;;;;;;;10.26;97.77;98686.56;5042778;28;20056;-69
2022/11/17 11:45:14;;;;;;;7.85;1.77;;;;;;;10.28;98.29;98687.13;5041203;28;20029;-68
2022/11/17 11:48:05;;;;;;;8.38;1.60;;;;;;;10.30;98.33;98688.56;5034046;28;20115;-69
2022/11/17 11:50:36;;;;;;;3.63;1.65;;;;;;;10.30;97.60;98687.75;5038609;28;20037;-70
2022/11/17 11:53:16;;;;;;;11.77;2.00;;;;;;;10.32;98.05;98697.38;5035336;28;20029;-69
2022/11/17 11:55:45;;;;;;;8.75;1.67;;;;;;;10.33;97.90;98695.44;5021287;28;20084;-68
2022/11/17 11:58:22;;;;;;;5.28;1.83;;;;;;;10.31;97.05;98692.13;5037192;28;20042;-69
2022/11/17 12:00:51;;;;;;;8.48;2.42;;;;;;;10.36;97.61;98686.75;5039297;28;20029;-70
2022/11/17 12:03:23;;;;;;;3.55;1.70;;;;;;;10.27;98.91;98700.00;5033480;28;20029;-69
2022/11/17 12:09:17;;;;;;;8.75;1.88;;;;;;;10.30;97.87;98704.16;5041114;28;20055;-70